Terminal Aerodrome Forecast
Issued by NWS

Home | Current Version | Previous Version | Text Only | Print | Product List | Glossary On
Versions: 1 2 3 4 5 6 7 8 9 10 11 12 13 14 15 16
000
FTUS43 KIND 260200 AAA
TAFLAF
TAF AMD
KLAF 260207Z 2602/2624 05014G21KT P6SM OVC015
     FM260400 05013KT P6SM SCT015 OVC040
     FM260800 03010KT P6SM SCT040 SCT080 BKN250
     FM261600 02013KT P6SM SCT040 SCT250
      AMD LTD TO CLD VIS AND WIND TIL 261300=

USA.gov is the U.S. government's official web portal to all federal, state and local government web resources and services.